createdAt,value
2022-12-02T00:02:36.425Z,17.20
2022-12-02T00:05:35.407Z,17.30
2022-12-02T00:08:31.841Z,17.20
2022-12-02T00:11:02.960Z,17.20
2022-12-02T00:13:44.850Z,17.20
2022-12-02T00:16:25.718Z,17.20
2022-12-02T00:18:56.211Z,17.30
2022-12-02T00:21:26.345Z,17.20
2022-12-02T00:23:56.315Z,17.30
2022-12-02T00:26:25.867Z,17.20
2022-12-02T00:28:55.274Z,17.20
2022-12-02T00:31:25.764Z,17.20
2022-12-02T00:33:57.217Z,17.30
2022-12-02T00:36:27.121Z,17.40
2022-12-02T00:38:57.261Z,17.30
2022-12-02T00:41:27.309Z,17.40
2022-12-02T00:44:15.817Z,17.30
2022-12-02T00:46:45.925Z,17.30
2022-12-02T00:49:16.593Z,17.30
2022-12-02T00:51:46.481Z,17.20
2022-12-02T00:54:16.060Z,17.20
2022-12-02T00:56:47.667Z,17.30
2022-12-02T00:59:17.700Z,17.40
2022-12-02T01:01:47.799Z,17.40
2022-12-02T01:04:17.978Z,17.40
2022-12-02T01:06:48.876Z,17.30
2022-12-02T01:09:19.168Z,17.40
2022-12-02T01:11:48.993Z,17.30
2022-12-02T01:14:18.503Z,16.90
2022-12-02T01:16:48.483Z,17.00
2022-12-02T01:19:18.111Z,17.10
2022-12-02T01:21:47.831Z,17.30
2022-12-02T01:24:17.683Z,17.10
2022-12-02T01:26:47.324Z,17.00
2022-12-02T01:29:16.795Z,17.20
2022-12-02T01:31:46.324Z,17.10
2022-12-02T01:34:16.339Z,16.90
2022-12-02T01:36:46.392Z,16.80
2022-12-02T01:39:17.099Z,16.80
2022-12-02T01:41:46.753Z,16.90
2022-12-02T01:44:16.632Z,17.10
2022-12-02T01:46:46.471Z,17.20
2022-12-02T01:49:15.942Z,17.20
2022-12-02T01:51:46.305Z,17.00
2022-12-02T01:54:16.156Z,17.30
2022-12-02T01:56:46.117Z,17.20
2022-12-02T01:59:16.817Z,17.30
2022-12-02T02:01:46.566Z,17.30
2022-12-02T02:04:16.093Z,17.40
2022-12-02T02:06:47.739Z,17.40
2022-12-02T02:09:18.009Z,17.30
2022-12-02T02:11:48.046Z,17.30
2022-12-02T02:14:17.755Z,17.40
2022-12-02T02:16:48.042Z,17.60
2022-12-02T02:19:18.256Z,17.50
2022-12-02T02:21:49.572Z,17.60
2022-12-02T02:24:21.125Z,17.60
2022-12-02T02:26:53.265Z,17.50
2022-12-02T02:29:23.720Z,17.30
2022-12-02T02:31:53.880Z,17.40
2022-12-02T02:34:23.869Z,17.40
2022-12-02T02:36:54.400Z,17.50
2022-12-02T02:39:25.087Z,17.40
2022-12-02T02:41:55.002Z,17.30
2022-12-02T02:44:26.015Z,17.40
2022-12-02T02:46:58.841Z,17.60
2022-12-02T02:49:30.080Z,17.60
2022-12-02T02:52:00.093Z,17.40
2022-12-02T02:54:29.731Z,17.50
2022-12-02T02:57:00.023Z,17.40
2022-12-02T02:59:31.773Z,17.60
2022-12-02T03:02:01.800Z,17.40
2022-12-02T03:04:31.873Z,17.50
2022-12-02T03:07:02.057Z,17.80
2022-12-02T03:09:31.676Z,17.60
2022-12-02T03:12:02.430Z,17.60
2022-12-02T03:14:32.629Z,17.60
2022-12-02T03:17:02.708Z,17.50
2022-12-02T03:19:33.060Z,17.60
2022-12-02T03:22:03.506Z,17.80
2022-12-02T03:24:33.541Z,17.90
2022-12-02T03:27:04.709Z,17.90
2022-12-02T03:29:34.406Z,17.90
2022-12-02T03:32:12.654Z,17.80
2022-12-02T03:34:43.592Z,18.00
2022-12-02T03:37:13.501Z,18.00
2022-12-02T03:39:43.381Z,17.80
2022-12-02T03:42:13.765Z,17.90
2022-12-02T03:44:43.874Z,17.80
2022-12-02T03:47:13.863Z,17.80
2022-12-02T03:49:45.632Z,17.70
2022-12-02T03:52:15.733Z,17.90
2022-12-02T03:54:46.641Z,17.90
2022-12-02T03:57:20.668Z,17.70
2022-12-02T03:59:50.260Z,18.00
2022-12-02T04:02:21.282Z,17.90
2022-12-02T04:04:51.324Z,17.90
2022-12-02T04:07:21.513Z,17.90
2022-12-02T04:09:51.593Z,18.00
2022-12-02T04:12:22.063Z,18.00
2022-12-02T04:14:51.762Z,18.00
2022-12-02T04:17:21.399Z,18.00
2022-12-02T04:19:51.307Z,18.10
2022-12-02T04:22:21.298Z,17.90
2022-12-02T04:24:51.665Z,18.00
2022-12-02T04:27:21.907Z,18.20
2022-12-02T04:29:51.871Z,18.10
2022-12-02T04:32:22.540Z,18.00
2022-12-02T04:34:52.788Z,18.00
2022-12-02T04:37:22.587Z,18.10
2022-12-02T04:39:52.516Z,18.20
2022-12-02T04:42:22.596Z,18.30
2022-12-02T04:44:52.992Z,18.20
2022-12-02T04:47:23.047Z,18.00
2022-12-02T04:49:52.449Z,18.30
2022-12-02T04:52:21.905Z,18.30
2022-12-02T04:54:51.907Z,18.30
2022-12-02T04:57:24.290Z,18.20
2022-12-02T04:59:56.339Z,18.40
2022-12-02T05:02:26.346Z,18.50
2022-12-02T05:04:56.215Z,18.40
2022-12-02T05:07:25.945Z,18.30
2022-12-02T05:09:56.144Z,18.40
2022-12-02T05:12:26.563Z,18.50
2022-12-02T05:14:56.565Z,18.40
2022-12-02T05:17:32.160Z,18.50
2022-12-02T05:20:02.866Z,18.60
2022-12-02T05:22:32.664Z,18.50
2022-12-02T05:25:02.792Z,18.50
2022-12-02T05:27:35.330Z,18.60
2022-12-02T05:30:05.577Z,18.60
2022-12-02T05:32:35.548Z,18.60
2022-12-02T05:35:06.269Z,18.60
2022-12-02T05:37:36.308Z,18.70
2022-12-02T05:40:06.630Z,18.80
2022-12-02T05:42:36.382Z,18.90
2022-12-02T05:45:30.452Z,19.10
2022-12-02T05:47:59.964Z,19.20
2022-12-02T05:50:33.723Z,19.30
2022-12-02T05:53:03.802Z,19.40
2022-12-02T05:55:33.428Z,19.60
2022-12-02T05:58:03.098Z,19.70
2022-12-02T06:00:33.155Z,19.80
2022-12-02T06:03:03.853Z,20.00
2022-12-02T06:05:39.713Z,20.10
2022-12-02T06:08:20.108Z,20.20
2022-12-02T06:11:04.810Z,20.20
2022-12-02T06:13:37.106Z,20.30
2022-12-02T06:16:10.434Z,20.40
2022-12-02T06:18:40.044Z,20.60
2022-12-02T06:21:17.461Z,20.60
2022-12-02T06:23:49.082Z,20.80
2022-12-02T06:26:20.322Z,20.90
2022-12-02T06:28:52.843Z,21.00
2022-12-02T06:31:23.219Z,21.10
2022-12-02T06:33:54.162Z,21.10
2022-12-02T06:36:25.090Z,21.20
2022-12-02T06:39:00.159Z,21.20
2022-12-02T06:41:34.067Z,21.30
2022-12-02T06:44:29.315Z,21.30
2022-12-02T06:47:00.667Z,21.40
2022-12-02T06:49:39.231Z,21.40
2022-12-02T06:52:21.111Z,21.50
2022-12-02T06:54:51.115Z,21.60
2022-12-02T06:57:20.991Z,21.70
2022-12-02T06:59:50.708Z,21.70
2022-12-02T07:02:39.925Z,21.70
2022-12-02T07:05:10.691Z,21.80
2022-12-02T07:07:40.396Z,21.90
2022-12-02T07:10:22.232Z,21.90
2022-12-02T07:12:52.303Z,21.90
2022-12-02T07:15:47.766Z,22.00
2022-12-02T07:18:19.734Z,22.00
2022-12-02T07:20:49.480Z,22.10
2022-12-02T07:23:23.670Z,22.10
2022-12-02T07:25:54.948Z,22.10
2022-12-02T07:28:35.853Z,22.10
2022-12-02T07:31:28.705Z,22.20
2022-12-02T07:33:58.701Z,22.20
2022-12-02T07:36:29.114Z,22.30
2022-12-02T07:39:05.690Z,22.30
2022-12-02T07:41:39.071Z,22.40
2022-12-02T07:44:09.008Z,22.40
2022-12-02T07:46:39.100Z,22.40
2022-12-02T07:49:08.685Z,22.40
2022-12-02T07:51:38.742Z,22.50
2022-12-02T07:54:08.923Z,22.70
2022-12-02T07:56:38.941Z,22.70
2022-12-02T07:59:13.080Z,22.80
2022-12-02T08:01:43.805Z,22.80
2022-12-02T08:04:13.471Z,22.70
2022-12-02T08:06:44.393Z,22.80
2022-12-02T08:09:14.669Z,22.50
2022-12-02T08:11:44.546Z,22.20
2022-12-02T08:14:14.691Z,22.10
2022-12-02T08:16:44.753Z,21.90
2022-12-02T08:19:14.970Z,21.70
2022-12-02T08:21:44.888Z,21.60
2022-12-02T08:24:15.066Z,21.50
2022-12-02T08:26:45.807Z,21.40
2022-12-02T08:29:15.965Z,21.40
2022-12-02T08:31:47.027Z,21.40
2022-12-02T08:34:17.456Z,21.40
2022-12-02T08:36:47.636Z,21.40
2022-12-02T08:39:17.279Z,21.40
2022-12-02T08:41:47.187Z,21.30
2022-12-02T08:44:17.265Z,21.10
2022-12-02T08:46:52.709Z,21.00
2022-12-02T08:49:24.671Z,21.00
2022-12-02T08:51:55.267Z,21.00
2022-12-02T08:54:25.183Z,20.90
2022-12-02T08:56:57.452Z,20.90
2022-12-02T08:59:28.335Z,20.90
2022-12-02T09:01:58.710Z,20.60
2022-12-02T09:04:28.951Z,20.50
2022-12-02T09:06:59.509Z,20.40
2022-12-02T09:09:29.526Z,20.40
2022-12-02T09:11:59.174Z,20.40
2022-12-02T09:14:29.949Z,20.30
2022-12-02T09:17:00.955Z,20.20
2022-12-02T09:19:31.049Z,20.20
2022-12-02T09:22:01.804Z,20.20
2022-12-02T09:24:33.969Z,20.10
2022-12-02T09:27:04.770Z,20.10
2022-12-02T09:29:35.740Z,20.10
2022-12-02T09:32:06.102Z,20.00
2022-12-02T09:34:35.846Z,19.90
2022-12-02T09:37:08.241Z,19.90
2022-12-02T09:39:39.456Z,19.90
2022-12-02T09:42:09.814Z,19.70
2022-12-02T09:44:39.843Z,19.80
2022-12-02T09:47:09.958Z,19.80
2022-12-02T09:49:39.491Z,19.70
2022-12-02T09:52:19.789Z,19.80
2022-12-02T09:54:56.364Z,19.70
2022-12-02T09:57:40.032Z,19.60
2022-12-02T10:00:15.994Z,19.60
2022-12-02T10:02:55.311Z,19.50
2022-12-02T10:05:26.867Z,19.50
2022-12-02T10:07:59.054Z,19.40
2022-12-02T10:10:40.152Z,19.60
2022-12-02T10:13:17.508Z,19.40
2022-12-02T10:15:47.284Z,19.40
2022-12-02T10:18:28.812Z,19.30
2022-12-02T10:20:58.853Z,19.20
2022-12-02T10:23:31.204Z,19.30
2022-12-02T10:26:13.934Z,19.40
2022-12-02T10:28:44.405Z,19.30
2022-12-02T10:31:24.316Z,19.30
2022-12-02T10:33:56.271Z,19.20
2022-12-02T10:36:40.239Z,19.20
2022-12-02T10:39:34.409Z,19.10
2022-12-02T10:42:09.827Z,19.20
2022-12-02T10:44:43.939Z,19.10
2022-12-02T10:47:26.690Z,19.10
2022-12-02T10:50:00.711Z,19.00
2022-12-02T10:52:32.513Z,18.90
2022-12-02T10:55:03.094Z,19.00
2022-12-02T10:57:33.554Z,19.10
2022-12-02T11:00:06.353Z,19.00
2022-12-02T11:02:37.830Z,19.00
2022-12-02T11:05:22.378Z,19.00
2022-12-02T11:08:02.478Z,18.90
2022-12-02T11:10:42.788Z,18.90
2022-12-02T11:13:15.932Z,18.80
2022-12-02T11:15:46.573Z,18.90
2022-12-02T11:18:32.004Z,19.10
2022-12-02T11:21:10.962Z,18.90
2022-12-02T11:23:41.636Z,18.70
2022-12-02T11:26:14.971Z,18.70
2022-12-02T11:29:00.663Z,18.80
2022-12-02T11:31:30.800Z,18.70
2022-12-02T11:34:06.039Z,18.60
2022-12-02T11:36:37.268Z,18.70
2022-12-02T11:39:10.925Z,18.70
2022-12-02T11:41:50.030Z,18.60
2022-12-02T11:44:31.780Z,18.80
2022-12-02T11:47:02.729Z,18.80
2022-12-02T11:49:44.188Z,18.70
2022-12-02T11:52:21.493Z,18.70
2022-12-02T11:55:16.229Z,18.50
2022-12-02T11:57:47.802Z,18.50
2022-12-02T12:00:38.578Z,18.60
2022-12-02T12:03:12.075Z,18.60
2022-12-02T12:05:42.888Z,18.60
2022-12-02T12:08:25.675Z,18.40
2022-12-02T12:11:31.451Z,18.50
2022-12-02T12:14:21.957Z,18.40
2022-12-02T12:16:51.708Z,18.60
2022-12-02T12:19:21.725Z,18.40
2022-12-02T12:21:55.899Z,18.50
2022-12-02T12:24:25.375Z,18.50
2022-12-02T12:26:56.001Z,18.50
2022-12-02T12:29:32.038Z,18.60
2022-12-02T12:32:02.115Z,18.60
2022-12-02T12:34:33.107Z,18.60
2022-12-02T12:37:02.710Z,18.70
2022-12-02T12:39:32.440Z,18.60
2022-12-02T12:42:02.343Z,18.50
2022-12-02T12:44:33.085Z,18.40
2022-12-02T12:47:05.299Z,18.50
2022-12-02T12:49:36.038Z,18.50
2022-12-02T12:52:06.479Z,18.50
2022-12-02T12:54:36.696Z,18.40
2022-12-02T12:57:07.115Z,18.40
2022-12-02T12:59:36.617Z,18.30
2022-12-02T13:02:06.267Z,18.30
2022-12-02T13:04:36.324Z,18.30
2022-12-02T13:07:06.279Z,18.20
2022-12-02T13:09:36.257Z,18.30
2022-12-02T13:12:11.240Z,18.30
2022-12-02T13:14:42.527Z,18.30
2022-12-02T13:17:12.623Z,18.30
2022-12-02T13:19:42.237Z,18.30
2022-12-02T13:22:12.192Z,18.20
2022-12-02T13:24:43.345Z,18.20
2022-12-02T13:27:13.281Z,18.30
2022-12-02T13:29:43.316Z,18.20
2022-12-02T13:32:12.891Z,18.20
2022-12-02T13:34:42.949Z,18.20
2022-12-02T13:37:12.987Z,18.20
2022-12-02T13:39:42.661Z,18.20
2022-12-02T13:42:12.537Z,18.10
2022-12-02T13:44:42.590Z,18.20
2022-12-02T13:47:12.605Z,18.20
2022-12-02T13:49:42.658Z,18.20
2022-12-02T13:52:12.235Z,18.20
2022-12-02T13:54:42.179Z,18.10
2022-12-02T13:57:11.765Z,18.10
2022-12-02T13:59:41.272Z,18.20
2022-12-02T14:02:12.624Z,18.10
2022-12-02T14:04:42.510Z,18.20
2022-12-02T14:07:11.988Z,18.20
2022-12-02T14:09:41.557Z,18.10
2022-12-02T14:12:11.376Z,18.10
2022-12-02T14:14:40.858Z,18.00
2022-12-02T14:17:10.881Z,18.00
2022-12-02T14:19:40.607Z,18.00
2022-12-02T14:22:10.147Z,18.00
2022-12-02T14:24:42.050Z,18.00
2022-12-02T14:27:14.474Z,17.90
2022-12-02T14:29:44.078Z,17.90
2022-12-02T14:32:14.149Z,18.00
2022-12-02T14:34:44.144Z,17.90
2022-12-02T14:37:15.346Z,17.90
2022-12-02T14:39:45.202Z,17.90
2022-12-02T14:42:14.617Z,17.80
2022-12-02T14:44:44.661Z,17.90
2022-12-02T14:47:14.373Z,17.80
2022-12-02T14:49:46.692Z,17.90
2022-12-02T14:52:16.693Z,17.90
2022-12-02T14:54:46.371Z,17.80
2022-12-02T14:57:16.852Z,17.90
2022-12-02T14:59:46.727Z,17.80
2022-12-02T15:02:16.760Z,17.70
2022-12-02T15:04:46.387Z,17.80
2022-12-02T15:07:15.902Z,17.70
2022-12-02T15:09:45.855Z,17.80
2022-12-02T15:12:16.059Z,17.80
2022-12-02T15:14:46.019Z,17.80
2022-12-02T15:17:16.433Z,17.70
2022-12-02T15:19:46.194Z,17.80
2022-12-02T15:22:16.120Z,17.80
2022-12-02T15:24:45.782Z,17.70
2022-12-02T15:27:25.672Z,17.70
2022-12-02T15:29:55.640Z,17.70
2022-12-02T15:32:25.351Z,17.70
2022-12-02T15:34:55.049Z,17.80
2022-12-02T15:37:24.567Z,17.80
2022-12-02T15:39:54.205Z,17.80
2022-12-02T15:42:24.127Z,17.90
2022-12-02T15:44:54.409Z,17.90
2022-12-02T15:47:24.472Z,17.80
2022-12-02T15:49:56.711Z,17.80
2022-12-02T15:52:29.447Z,17.70
2022-12-02T15:54:58.998Z,17.80
2022-12-02T15:57:28.566Z,17.70
2022-12-02T15:59:58.031Z,17.60
2022-12-02T16:02:29.003Z,17.60
2022-12-02T16:04:59.131Z,17.60
2022-12-02T16:07:29.195Z,17.60
2022-12-02T16:09:59.295Z,17.60
2022-12-02T16:12:29.739Z,17.60
2022-12-02T16:15:02.842Z,17.60
2022-12-02T16:17:32.566Z,17.60
2022-12-02T16:20:03.086Z,17.60
2022-12-02T16:22:38.773Z,17.60
2022-12-02T16:25:09.173Z,17.60
2022-12-02T16:27:41.195Z,17.60
2022-12-02T16:30:12.073Z,17.60
2022-12-02T16:32:44.712Z,17.50
2022-12-02T16:35:14.258Z,17.50
2022-12-02T16:37:44.292Z,17.60
2022-12-02T16:40:15.224Z,17.50
2022-12-02T16:42:45.271Z,17.50
2022-12-02T16:45:14.978Z,17.60
2022-12-02T16:47:44.933Z,17.50
2022-12-02T16:50:18.945Z,17.50
2022-12-02T16:52:48.554Z,17.50
2022-12-02T16:55:21.078Z,17.50
2022-12-02T16:57:50.664Z,17.50
2022-12-02T17:00:21.166Z,17.50
2022-12-02T17:02:52.454Z,17.50
2022-12-02T17:05:22.549Z,17.40
2022-12-02T17:07:54.279Z,17.30
2022-12-02T17:10:24.388Z,17.40
2022-12-02T17:12:54.064Z,17.40
2022-12-02T17:15:23.644Z,17.30
2022-12-02T17:17:53.194Z,17.30
2022-12-02T17:20:22.696Z,17.30
2022-12-02T17:22:52.215Z,17.30
2022-12-02T17:25:21.710Z,17.30
2022-12-02T17:27:51.656Z,17.30
2022-12-02T17:30:21.286Z,17.30
2022-12-02T17:32:56.508Z,17.40
2022-12-02T17:35:26.751Z,17.30
2022-12-02T17:37:56.680Z,17.30
2022-12-02T17:40:26.707Z,17.30
2022-12-02T17:42:56.844Z,17.30
2022-12-02T17:45:26.882Z,17.30
2022-12-02T17:47:56.383Z,17.30
2022-12-02T17:50:26.264Z,17.30
2022-12-02T17:52:55.848Z,17.30
2022-12-02T17:55:25.428Z,17.30
2022-12-02T17:57:55.375Z,17.20
2022-12-02T18:00:24.922Z,17.30
2022-12-02T18:02:54.882Z,17.40
2022-12-02T18:05:24.939Z,17.30
2022-12-02T18:07:54.546Z,17.20
2022-12-02T18:10:24.053Z,17.20
2022-12-02T18:12:54.647Z,17.20
2022-12-02T18:15:24.196Z,17.20
2022-12-02T18:17:54.164Z,17.20
2022-12-02T18:20:23.763Z,17.10
2022-12-02T18:22:53.428Z,17.20
2022-12-02T18:25:23.000Z,17.10
2022-12-02T18:27:52.993Z,17.10
2022-12-02T18:30:23.076Z,17.10
2022-12-02T18:32:53.148Z,17.10
2022-12-02T18:35:23.467Z,17.10
2022-12-02T18:37:53.055Z,17.20
2022-12-02T18:40:22.571Z,17.20
2022-12-02T18:42:53.120Z,17.20
2022-12-02T18:45:23.148Z,17.30
2022-12-02T18:47:52.644Z,17.20
2022-12-02T18:50:22.231Z,17.10
2022-12-02T18:52:51.699Z,17.20
2022-12-02T18:55:21.256Z,17.20
2022-12-02T18:57:50.695Z,17.20
2022-12-02T19:00:20.771Z,17.10
2022-12-02T19:02:50.359Z,17.10
2022-12-02T19:05:19.922Z,17.10
2022-12-02T19:07:49.443Z,17.10
2022-12-02T19:10:19.741Z,17.10
2022-12-02T19:12:49.756Z,17.00
2022-12-02T19:15:20.874Z,17.00
2022-12-02T19:17:50.822Z,17.10
2022-12-02T19:20:20.434Z,17.10
2022-12-02T19:22:50.331Z,17.10
2022-12-02T19:25:20.321Z,17.00
2022-12-02T19:27:57.514Z,17.10
2022-12-02T19:30:28.500Z,17.10
2022-12-02T19:32:58.416Z,17.00
2022-12-02T19:35:28.284Z,17.10
2022-12-02T19:38:04.073Z,17.10
2022-12-02T19:40:42.479Z,17.10
2022-12-02T19:43:16.258Z,17.00
2022-12-02T19:45:46.224Z,17.10
2022-12-02T19:48:15.736Z,17.00
2022-12-02T19:50:46.098Z,17.10
2022-12-02T19:53:16.239Z,17.10
2022-12-02T19:55:46.294Z,17.10
2022-12-02T19:58:15.890Z,17.10
2022-12-02T20:00:45.812Z,17.00
2022-12-02T20:03:16.218Z,17.00
2022-12-02T20:05:45.946Z,17.10
2022-12-02T20:08:16.097Z,17.00
2022-12-02T20:10:45.730Z,17.10
2022-12-02T20:13:15.624Z,17.00
2022-12-02T20:15:45.619Z,17.00
2022-12-02T20:18:15.720Z,17.00
2022-12-02T20:20:45.313Z,17.10
2022-12-02T20:23:15.228Z,17.00
2022-12-02T20:25:44.796Z,17.00
2022-12-02T20:28:14.245Z,17.00
2022-12-02T20:30:44.196Z,16.90
2022-12-02T20:33:13.898Z,17.00
2022-12-02T20:35:43.943Z,16.90
2022-12-02T20:38:13.509Z,16.90
2022-12-02T20:40:43.072Z,16.90
2022-12-02T20:43:13.042Z,16.90
2022-12-02T20:45:42.690Z,16.90
2022-12-02T20:48:12.555Z,16.90
2022-12-02T20:50:42.043Z,16.90
2022-12-02T20:53:11.965Z,17.00
2022-12-02T20:55:42.017Z,17.00
2022-12-02T20:58:12.603Z,17.00
2022-12-02T21:00:43.257Z,17.00
2022-12-02T21:03:14.408Z,16.90
2022-12-02T21:05:44.106Z,16.90
2022-12-02T21:08:14.104Z,16.90
2022-12-02T21:10:45.463Z,16.80
2022-12-02T21:13:15.268Z,16.80
2022-12-02T21:15:45.272Z,16.90
2022-12-02T21:18:15.277Z,16.80
2022-12-02T21:20:45.042Z,16.80
2022-12-02T21:23:15.119Z,16.80
2022-12-02T21:25:45.103Z,16.80
2022-12-02T21:28:14.665Z,16.80
2022-12-02T21:30:44.727Z,16.80
2022-12-02T21:33:16.107Z,16.80
2022-12-02T21:35:47.036Z,16.80
2022-12-02T21:38:17.037Z,16.90
2022-12-02T21:40:47.413Z,16.80
2022-12-02T21:43:17.024Z,16.80
2022-12-02T21:45:47.168Z,16.80
2022-12-02T21:48:17.620Z,16.80
2022-12-02T21:50:48.058Z,16.80
2022-12-02T21:53:18.190Z,16.80
2022-12-02T21:55:48.208Z,16.80
2022-12-02T21:58:18.223Z,16.80
2022-12-02T22:00:47.954Z,16.80
2022-12-02T22:03:18.130Z,16.80
2022-12-02T22:05:47.975Z,16.80
2022-12-02T22:08:17.659Z,16.70
2022-12-02T22:10:47.401Z,16.80
2022-12-02T22:13:17.255Z,16.70
2022-12-02T22:15:46.772Z,16.60
2022-12-02T22:18:16.685Z,16.60
2022-12-02T22:20:46.746Z,16.60
2022-12-02T22:23:16.279Z,16.70
2022-12-02T22:25:45.732Z,16.70
2022-12-02T22:28:15.698Z,16.70
2022-12-02T22:30:45.752Z,16.70
2022-12-02T22:33:15.258Z,16.70
2022-12-02T22:35:44.689Z,16.80
2022-12-02T22:38:14.711Z,16.70
2022-12-02T22:40:44.316Z,16.70
2022-12-02T22:43:14.267Z,16.80
2022-12-02T22:45:43.877Z,16.80
2022-12-02T22:48:13.347Z,16.70
2022-12-02T22:50:42.919Z,16.70
2022-12-02T22:53:12.911Z,16.70
2022-12-02T22:55:42.812Z,16.70
2022-12-02T22:58:12.835Z,16.60
2022-12-02T23:00:42.407Z,16.60
2022-12-02T23:03:11.883Z,16.70
2022-12-02T23:05:41.345Z,16.60
2022-12-02T23:08:11.304Z,16.60
2022-12-02T23:10:40.875Z,16.70
2022-12-02T23:13:10.328Z,16.70
2022-12-02T23:15:40.065Z,16.70
2022-12-02T23:18:09.942Z,16.70
2022-12-02T23:20:39.432Z,16.70
2022-12-02T23:23:08.872Z,16.60
2022-12-02T23:25:38.743Z,16.60
2022-12-02T23:28:08.742Z,16.60
2022-12-02T23:30:38.757Z,16.60
2022-12-02T23:33:08.365Z,16.60
2022-12-02T23:35:38.296Z,16.60
2022-12-02T23:38:08.243Z,16.50
2022-12-02T23:40:37.750Z,16.60
2022-12-02T23:43:07.585Z,16.60
2022-12-02T23:45:37.158Z,16.50
2022-12-02T23:48:06.838Z,16.50
2022-12-02T23:50:36.723Z,16.50
2022-12-02T23:53:06.237Z,16.60
2022-12-02T23:55:35.721Z,16.60
2022-12-02T23:58:05.705Z,16.60
